sensor_id;sensor_type;location;lat;lon;timestamp;temperature;humidity
4910;DHT22;2470;49.868;8.660;2023-06-22T00:02:13;25.10;99.90
4910;DHT22;2470;49.868;8.660;2023-06-22T00:04:39;25.10;99.90
4910;DHT22;2470;49.868;8.660;2023-06-22T00:07:04;25.00;99.90
4910;DHT22;2470;49.868;8.660;2023-06-22T00:09:31;25.00;99.90
4910;DHT22;2470;49.868;8.660;2023-06-22T00:11:56;25.00;99.90
4910;DHT22;2470;49.868;8.660;2023-06-22T00:14:22;25.00;99.90
4910;DHT22;2470;49.868;8.660;2023-06-22T00:16:47;25.00;99.90
4910;DHT22;2470;49.868;8.660;2023-06-22T00:19:15;25.00;99.90
4910;DHT22;2470;49.868;8.660;2023-06-22T00:21:40;25.00;99.90
4910;DHT22;2470;49.868;8.660;2023-06-22T00:24:06;25.00;99.90
4910;DHT22;2470;49.868;8.660;2023-06-22T00:26:32;25.00;99.90
4910;DHT22;2470;49.868;8.660;2023-06-22T00:28:57;25.00;99.90
4910;DHT22;2470;49.868;8.660;2023-06-22T00:31:23;25.00;99.90
4910;DHT22;2470;49.868;8.660;2023-06-22T00:33:48;25.10;99.90
4910;DHT22;2470;49.868;8.660;2023-06-22T00:36:16;25.00;99.90
4910;DHT22;2470;49.868;8.660;2023-06-22T00:38:44;25.00;99.90
4910;DHT22;2470;49.868;8.660;2023-06-22T00:41:09;24.90;99.90
4910;DHT22;2470;49.868;8.660;2023-06-22T00:43:35;24.80;99.90
4910;DHT22;2470;49.868;8.660;2023-06-22T00:46:01;24.80;99.90
4910;DHT22;2470;49.868;8.660;2023-06-22T00:48:26;24.80;99.90
4910;DHT22;2470;49.868;8.660;2023-06-22T00:50:52;24.80;99.90
4910;DHT22;2470;49.868;8.660;2023-06-22T00:53:21;24.90;99.90
4910;DHT22;2470;49.868;8.660;2023-06-22T00:55:46;24.90;99.90
4910;DHT22;2470;49.868;8.660;2023-06-22T00:58:13;25.00;99.90
4910;DHT22;2470;49.868;8.660;2023-06-22T01:00:40;25.00;99.90
4910;DHT22;2470;49.868;8.660;2023-06-22T01:03:06;25.00;99.90
4910;DHT22;2470;49.868;8.660;2023-06-22T01:05:35;24.90;99.90
4910;DHT22;2470;49.868;8.660;2023-06-22T01:13:45;24.60;99.90
4910;DHT22;2470;49.868;8.660;2023-06-22T01:16:25;24.60;99.90
4910;DHT22;2470;49.868;8.660;2023-06-22T01:18:55;24.50;99.90
4910;DHT22;2470;49.868;8.660;2023-06-22T01:21:22;24.40;99.90
4910;DHT22;2470;49.868;8.660;2023-06-22T01:24:02;24.30;99.90
4910;DHT22;2470;49.868;8.660;2023-06-22T01:27:09;24.30;99.90
4910;DHT22;2470;49.868;8.660;2023-06-22T01:29:39;24.30;99.90
4910;DHT22;2470;49.868;8.660;2023-06-22T01:32:06;24.30;99.90
4910;DHT22;2470;49.868;8.660;2023-06-22T01:34:33;24.30;99.90
4910;DHT22;2470;49.868;8.660;2023-06-22T01:36:59;24.40;99.90
4910;DHT22;2470;49.868;8.660;2023-06-22T01:39:26;24.30;99.90
4910;DHT22;2470;49.868;8.660;2023-06-22T01:41:53;24.30;99.90
4910;DHT22;2470;49.868;8.660;2023-06-22T01:44:20;24.30;99.90
4910;DHT22;2470;49.868;8.660;2023-06-22T01:46:48;24.20;99.90
4910;DHT22;2470;49.868;8.660;2023-06-22T01:49:14;24.20;99.90
4910;DHT22;2470;49.868;8.660;2023-06-22T01:51:40;24.00;99.90
4910;DHT22;2470;49.868;8.660;2023-06-22T01:54:06;23.90;99.90
4910;DHT22;2470;49.868;8.660;2023-06-22T01:56:33;23.90;99.90
4910;DHT22;2470;49.868;8.660;2023-06-22T01:59:08;23.90;99.90
4910;DHT22;2470;49.868;8.660;2023-06-22T02:02:02;24.00;99.90
4910;DHT22;2470;49.868;8.660;2023-06-22T02:04:41;24.00;99.90
4910;DHT22;2470;49.868;8.660;2023-06-22T02:07:12;24.00;99.90
4910;DHT22;2470;49.868;8.660;2023-06-22T02:09:41;24.10;99.90
4910;DHT22;2470;49.868;8.660;2023-06-22T02:12:10;24.10;99.90
4910;DHT22;2470;49.868;8.660;2023-06-22T02:14:37;24.10;99.90
4910;DHT22;2470;49.868;8.660;2023-06-22T02:17:03;24.10;99.90
4910;DHT22;2470;49.868;8.660;2023-06-22T02:19:35;24.20;99.90
4910;DHT22;2470;49.868;8.660;2023-06-22T02:22:01;24.10;99.90
4910;DHT22;2470;49.868;8.660;2023-06-22T02:24:27;24.00;99.90
4910;DHT22;2470;49.868;8.660;2023-06-22T02:26:58;24.00;99.90
4910;DHT22;2470;49.868;8.660;2023-06-22T02:29:23;24.00;99.90
4910;DHT22;2470;49.868;8.660;2023-06-22T02:31:49;24.00;99.90
4910;DHT22;2470;49.868;8.660;2023-06-22T02:34:14;24.00;99.90
4910;DHT22;2470;49.868;8.660;2023-06-22T02:36:46;24.00;99.90
4910;DHT22;2470;49.868;8.660;2023-06-22T02:39:23;24.00;99.90
4910;DHT22;2470;49.868;8.660;2023-06-22T02:41:50;24.00;99.90
4910;DHT22;2470;49.868;8.660;2023-06-22T02:44:16;24.00;99.90
4910;DHT22;2470;49.868;8.660;2023-06-22T02:46:42;24.00;99.90
4910;DHT22;2470;49.868;8.660;2023-06-22T02:49:08;24.00;99.90
4910;DHT22;2470;49.868;8.660;2023-06-22T02:51:34;24.00;99.90
4910;DHT22;2470;49.868;8.660;2023-06-22T02:54:00;24.00;99.90
4910;DHT22;2470;49.868;8.660;2023-06-22T02:56:26;24.00;99.90
4910;DHT22;2470;49.868;8.660;2023-06-22T02:58:51;24.00;99.90
4910;DHT22;2470;49.868;8.660;2023-06-22T03:01:17;23.90;99.90
4910;DHT22;2470;49.868;8.660;2023-06-22T03:03:49;23.90;99.90
4910;DHT22;2470;49.868;8.660;2023-06-22T03:06:15;23.80;99.90
4910;DHT22;2470;49.868;8.660;2023-06-22T03:08:40;23.80;99.90
4910;DHT22;2470;49.868;8.660;2023-06-22T03:11:07;23.70;99.90
4910;DHT22;2470;49.868;8.660;2023-06-22T03:13:33;23.70;99.90
4910;DHT22;2470;49.868;8.660;2023-06-22T03:15:58;23.70;99.90
4910;DHT22;2470;49.868;8.660;2023-06-22T03:18:24;23.70;99.90
4910;DHT22;2470;49.868;8.660;2023-06-22T03:20:49;23.70;99.90
4910;DHT22;2470;49.868;8.660;2023-06-22T03:23:15;23.80;99.90
4910;DHT22;2470;49.868;8.660;2023-06-22T03:25:42;23.70;99.90
4910;DHT22;2470;49.868;8.660;2023-06-22T03:28:10;23.80;99.90
4910;DHT22;2470;49.868;8.660;2023-06-22T03:30:35;23.80;99.90
4910;DHT22;2470;49.868;8.660;2023-06-22T03:33:01;23.80;99.90
4910;DHT22;2470;49.868;8.660;2023-06-22T03:35:26;23.80;99.90
4910;DHT22;2470;49.868;8.660;2023-06-22T03:37:52;23.80;99.90
4910;DHT22;2470;49.868;8.660;2023-06-22T03:40:17;23.80;99.90
4910;DHT22;2470;49.868;8.660;2023-06-22T03:42:43;23.80;99.90
4910;DHT22;2470;49.868;8.660;2023-06-22T03:45:09;23.80;99.90
4910;DHT22;2470;49.868;8.660;2023-06-22T03:47:34;23.80;99.90
4910;DHT22;2470;49.868;8.660;2023-06-22T03:50:00;23.70;99.90
4910;DHT22;2470;49.868;8.660;2023-06-22T03:52:26;23.70;99.90
4910;DHT22;2470;49.868;8.660;2023-06-22T03:54:51;23.70;99.90
4910;DHT22;2470;49.868;8.660;2023-06-22T03:57:17;23.80;99.90
4910;DHT22;2470;49.868;8.660;2023-06-22T03:59:42;23.80;99.90
4910;DHT22;2470;49.868;8.660;2023-06-22T04:02:08;23.80;99.90
4910;DHT22;2470;49.868;8.660;2023-06-22T04:04:33;23.80;99.90
4910;DHT22;2470;49.868;8.660;2023-06-22T04:07:00;23.80;99.90
4910;DHT22;2470;49.868;8.660;2023-06-22T04:09:26;23.80;99.90
4910;DHT22;2470;49.868;8.660;2023-06-22T04:11:51;23.80;99.90
4910;DHT22;2470;49.868;8.660;2023-06-22T04:14:17;23.80;99.90
4910;DHT22;2470;49.868;8.660;2023-06-22T04:16:42;23.80;99.90
4910;DHT22;2470;49.868;8.660;2023-06-22T04:19:08;23.80;99.90
4910;DHT22;2470;49.868;8.660;2023-06-22T04:21:39;23.80;99.90
4910;DHT22;2470;49.868;8.660;2023-06-22T04:24:05;23.80;99.90
4910;DHT22;2470;49.868;8.660;2023-06-22T04:26:30;23.80;99.90
4910;DHT22;2470;49.868;8.660;2023-06-22T04:28:56;23.80;99.90
4910;DHT22;2470;49.868;8.660;2023-06-22T04:31:21;23.80;99.90
4910;DHT22;2470;49.868;8.660;2023-06-22T04:33:47;23.80;99.90
4910;DHT22;2470;49.868;8.660;2023-06-22T04:36:13;23.80;99.90
4910;DHT22;2470;49.868;8.660;2023-06-22T04:38:41;23.80;99.90
4910;DHT22;2470;49.868;8.660;2023-06-22T04:41:07;23.80;99.90
4910;DHT22;2470;49.868;8.660;2023-06-22T04:43:34;23.70;99.90
4910;DHT22;2470;49.868;8.660;2023-06-22T04:46:00;23.80;99.90
4910;DHT22;2470;49.868;8.660;2023-06-22T04:48:29;23.80;99.90
4910;DHT22;2470;49.868;8.660;2023-06-22T04:50:59;23.80;99.90
4910;DHT22;2470;49.868;8.660;2023-06-22T04:53:28;23.80;99.90
4910;DHT22;2470;49.868;8.660;2023-06-22T04:55:55;23.80;99.90
4910;DHT22;2470;49.868;8.660;2023-06-22T04:58:20;23.80;99.90
4910;DHT22;2470;49.868;8.660;2023-06-22T05:00:47;23.70;99.90
4910;DHT22;2470;49.868;8.660;2023-06-22T05:03:12;23.80;99.90
4910;DHT22;2470;49.868;8.660;2023-06-22T05:05:38;23.80;99.90
4910;DHT22;2470;49.868;8.660;2023-06-22T05:08:04;23.80;99.90
4910;DHT22;2470;49.868;8.660;2023-06-22T05:10:35;23.90;99.90
4910;DHT22;2470;49.868;8.660;2023-06-22T05:13:00;23.90;99.90
4910;DHT22;2470;49.868;8.660;2023-06-22T05:15:26;23.90;99.90
4910;DHT22;2470;49.868;8.660;2023-06-22T05:17:55;23.90;99.90
4910;DHT22;2470;49.868;8.660;2023-06-22T05:20:21;24.00;99.90
4910;DHT22;2470;49.868;8.660;2023-06-22T05:22:47;24.00;99.90
4910;DHT22;2470;49.868;8.660;2023-06-22T05:25:13;24.10;99.90
4910;DHT22;2470;49.868;8.660;2023-06-22T05:27:39;24.20;99.90
4910;DHT22;2470;49.868;8.660;2023-06-22T05:30:08;24.20;99.90
4910;DHT22;2470;49.868;8.660;2023-06-22T05:32:35;24.30;99.90
4910;DHT22;2470;49.868;8.660;2023-06-22T05:35:00;24.30;99.90
4910;DHT22;2470;49.868;8.660;2023-06-22T05:37:26;24.30;99.90
4910;DHT22;2470;49.868;8.660;2023-06-22T05:39:51;24.40;99.90
4910;DHT22;2470;49.868;8.660;2023-06-22T05:42:17;24.50;99.90
4910;DHT22;2470;49.868;8.660;2023-06-22T05:44:43;24.50;99.90
4910;DHT22;2470;49.868;8.660;2023-06-22T05:47:08;24.60;99.90
4910;DHT22;2470;49.868;8.660;2023-06-22T05:49:34;24.70;99.90
4910;DHT22;2470;49.868;8.660;2023-06-22T05:51:59;24.70;99.90
4910;DHT22;2470;49.868;8.660;2023-06-22T05:54:27;24.80;99.90
4910;DHT22;2470;49.868;8.660;2023-06-22T05:56:52;24.80;99.90
4910;DHT22;2470;49.868;8.660;2023-06-22T05:59:18;24.90;99.90
4910;DHT22;2470;49.868;8.660;2023-06-22T06:01:43;24.90;99.90
4910;DHT22;2470;49.868;8.660;2023-06-22T06:04:09;24.90;99.90
4910;DHT22;2470;49.868;8.660;2023-06-22T06:06:34;25.00;99.90
4910;DHT22;2470;49.868;8.660;2023-06-22T06:09:03;25.10;99.90
4910;DHT22;2470;49.868;8.660;2023-06-22T06:11:29;25.10;99.90
4910;DHT22;2470;49.868;8.660;2023-06-22T06:13:54;25.20;99.90
4910;DHT22;2470;49.868;8.660;2023-06-22T06:16:19;25.20;99.90
4910;DHT22;2470;49.868;8.660;2023-06-22T06:18:45;25.30;99.90
4910;DHT22;2470;49.868;8.660;2023-06-22T06:21:10;25.30;99.90
4910;DHT22;2470;49.868;8.660;2023-06-22T06:23:36;25.30;99.90
4910;DHT22;2470;49.868;8.660;2023-06-22T06:26:02;25.40;99.90
4910;DHT22;2470;49.868;8.660;2023-06-22T06:28:27;25.40;99.90
4910;DHT22;2470;49.868;8.660;2023-06-22T06:30:53;25.50;99.90
4910;DHT22;2470;49.868;8.660;2023-06-22T06:33:19;25.60;99.90
4910;DHT22;2470;49.868;8.660;2023-06-22T06:35:46;25.60;99.90
4910;DHT22;2470;49.868;8.660;2023-06-22T06:38:11;25.60;99.90
4910;DHT22;2470;49.868;8.660;2023-06-22T06:40:37;25.70;99.90
4910;DHT22;2470;49.868;8.660;2023-06-22T06:43:02;25.70;99.90
4910;DHT22;2470;49.868;8.660;2023-06-22T06:45:28;25.80;99.90
4910;DHT22;2470;49.868;8.660;2023-06-22T06:47:54;25.80;99.90
4910;DHT22;2470;49.868;8.660;2023-06-22T06:50:20;26.00;99.90
4910;DHT22;2470;49.868;8.660;2023-06-22T06:52:45;26.00;99.90
4910;DHT22;2470;49.868;8.660;2023-06-22T06:55:11;26.10;99.90
4910;DHT22;2470;49.868;8.660;2023-06-22T06:57:38;26.20;99.90
4910;DHT22;2470;49.868;8.660;2023-06-22T07:00:06;26.20;99.90
4910;DHT22;2470;49.868;8.660;2023-06-22T07:02:35;26.20;99.90
4910;DHT22;2470;49.868;8.660;2023-06-22T07:05:01;26.20;99.90
4910;DHT22;2470;49.868;8.660;2023-06-22T07:07:29;26.30;99.90
4910;DHT22;2470;49.868;8.660;2023-06-22T07:09:55;26.30;99.90
4910;DHT22;2470;49.868;8.660;2023-06-22T07:12:20;26.30;99.90
4910;DHT22;2470;49.868;8.660;2023-06-22T07:14:46;26.30;99.90
4910;DHT22;2470;49.868;8.660;2023-06-22T07:17:12;26.30;99.90
4910;DHT22;2470;49.868;8.660;2023-06-22T07:19:37;26.30;99.90
4910;DHT22;2470;49.868;8.660;2023-06-22T07:22:03;26.30;99.90
4910;DHT22;2470;49.868;8.660;2023-06-22T07:24:28;26.30;99.90
4910;DHT22;2470;49.868;8.660;2023-06-22T07:26:54;26.40;99.90
4910;DHT22;2470;49.868;8.660;2023-06-22T07:29:20;26.40;99.90
4910;DHT22;2470;49.868;8.660;2023-06-22T07:31:47;26.40;99.90
4910;DHT22;2470;49.868;8.660;2023-06-22T07:34:13;26.50;99.90
4910;DHT22;2470;49.868;8.660;2023-06-22T07:36:38;26.50;99.90
4910;DHT22;2470;49.868;8.660;2023-06-22T07:39:04;26.50;99.90
4910;DHT22;2470;49.868;8.660;2023-06-22T07:41:30;26.50;99.90
4910;DHT22;2470;49.868;8.660;2023-06-22T07:43:56;26.50;99.90
4910;DHT22;2470;49.868;8.660;2023-06-22T07:46:22;26.50;99.90
4910;DHT22;2470;49.868;8.660;2023-06-22T07:48:48;26.60;99.90
4910;DHT22;2470;49.868;8.660;2023-06-22T07:51:13;26.60;99.90
4910;DHT22;2470;49.868;8.660;2023-06-22T07:53:43;26.70;99.90
4910;DHT22;2470;49.868;8.660;2023-06-22T07:56:12;26.70;99.90
4910;DHT22;2470;49.868;8.660;2023-06-22T07:58:38;26.80;99.90
4910;DHT22;2470;49.868;8.660;2023-06-22T08:01:04;26.90;99.90
4910;DHT22;2470;49.868;8.660;2023-06-22T08:03:29;26.90;99.90
4910;DHT22;2470;49.868;8.660;2023-06-22T08:05:55;27.00;99.90
4910;DHT22;2470;49.868;8.660;2023-06-22T08:08:21;27.10;99.90
4910;DHT22;2470;49.868;8.660;2023-06-22T08:10:46;27.20;99.90
4910;DHT22;2470;49.868;8.660;2023-06-22T08:13:12;27.20;99.90
4910;DHT22;2470;49.868;8.660;2023-06-22T08:15:38;27.30;99.90
4910;DHT22;2470;49.868;8.660;2023-06-22T08:18:03;27.40;99.90
4910;DHT22;2470;49.868;8.660;2023-06-22T08:20:29;27.40;99.90
4910;DHT22;2470;49.868;8.660;2023-06-22T08:22:56;27.50;99.90
4910;DHT22;2470;49.868;8.660;2023-06-22T08:25:23;27.40;99.90
4910;DHT22;2470;49.868;8.660;2023-06-22T08:27:48;27.50;99.90
4910;DHT22;2470;49.868;8.660;2023-06-22T08:30:15;27.50;99.90
4910;DHT22;2470;49.868;8.660;2023-06-22T08:32:41;27.60;99.90
4910;DHT22;2470;49.868;8.660;2023-06-22T08:35:07;27.70;99.90
4910;DHT22;2470;49.868;8.660;2023-06-22T08:37:35;27.70;99.90
4910;DHT22;2470;49.868;8.660;2023-06-22T08:40:02;27.80;99.90
4910;DHT22;2470;49.868;8.660;2023-06-22T08:42:29;27.80;99.90
4910;DHT22;2470;49.868;8.660;2023-06-22T08:44:55;27.80;99.90
4910;DHT22;2470;49.868;8.660;2023-06-22T08:47:21;27.80;99.90
4910;DHT22;2470;49.868;8.660;2023-06-22T08:49:46;27.80;99.90
4910;DHT22;2470;49.868;8.660;2023-06-22T08:52:12;27.90;99.90
4910;DHT22;2470;49.868;8.660;2023-06-22T08:54:38;28.00;99.90
4910;DHT22;2470;49.868;8.660;2023-06-22T08:57:04;28.10;99.90
4910;DHT22;2470;49.868;8.660;2023-06-22T08:59:29;28.20;99.90
4910;DHT22;2470;49.868;8.660;2023-06-22T09:01:55;28.20;99.90
4910;DHT22;2470;49.868;8.660;2023-06-22T09:04:20;28.30;99.90
4910;DHT22;2470;49.868;8.660;2023-06-22T09:06:49;28.50;99.90
4910;DHT22;2470;49.868;8.660;2023-06-22T09:09:16;28.50;99.90
4910;DHT22;2470;49.868;8.660;2023-06-22T09:11:41;28.40;99.90
4910;DHT22;2470;49.868;8.660;2023-06-22T09:14:07;28.30;99.90
4910;DHT22;2470;49.868;8.660;2023-06-22T09:16:33;28.40;99.90
4910;DHT22;2470;49.868;8.660;2023-06-22T09:18:59;28.30;99.90
4910;DHT22;2470;49.868;8.660;2023-06-22T09:21:24;28.30;99.90
4910;DHT22;2470;49.868;8.660;2023-06-22T09:23:50;28.40;99.90
4910;DHT22;2470;49.868;8.660;2023-06-22T09:26:17;28.60;99.90
4910;DHT22;2470;49.868;8.660;2023-06-22T09:28:43;28.80;99.90
4910;DHT22;2470;49.868;8.660;2023-06-22T09:31:08;29.00;99.90
4910;DHT22;2470;49.868;8.660;2023-06-22T09:33:34;29.10;99.90
4910;DHT22;2470;49.868;8.660;2023-06-22T09:36:00;29.10;99.50
4910;DHT22;2470;49.868;8.660;2023-06-22T09:38:25;29.00;98.80
4910;DHT22;2470;49.868;8.660;2023-06-22T09:40:51;29.00;98.90
4910;DHT22;2470;49.868;8.660;2023-06-22T09:43:17;28.90;99.20
4910;DHT22;2470;49.868;8.660;2023-06-22T09:45:42;28.90;99.30
4910;DHT22;2470;49.868;8.660;2023-06-22T09:48:08;28.90;99.00
4910;DHT22;2470;49.868;8.660;2023-06-22T09:50:35;28.90;99.10
4910;DHT22;2470;49.868;8.660;2023-06-22T09:53:00;29.00;99.40
4910;DHT22;2470;49.868;8.660;2023-06-22T09:55:26;29.10;99.10
4910;DHT22;2470;49.868;8.660;2023-06-22T09:57:51;29.10;98.40
4910;DHT22;2470;49.868;8.660;2023-06-22T10:00:17;29.20;98.20
4910;DHT22;2470;49.868;8.660;2023-06-22T10:02:44;29.40;97.90
4910;DHT22;2470;49.868;8.660;2023-06-22T10:05:10;29.40;98.40
4910;DHT22;2470;49.868;8.660;2023-06-22T10:07:36;29.50;98.10
4910;DHT22;2470;49.868;8.660;2023-06-22T10:10:08;29.50;98.00
4910;DHT22;2470;49.868;8.660;2023-06-22T10:12:33;29.50;97.60
4910;DHT22;2470;49.868;8.660;2023-06-22T10:14:59;29.40;97.30
4910;DHT22;2470;49.868;8.660;2023-06-22T10:17:24;29.40;97.30
4910;DHT22;2470;49.868;8.660;2023-06-22T10:19:50;29.50;97.10
4910;DHT22;2470;49.868;8.660;2023-06-22T10:22:15;29.60;97.70
4910;DHT22;2470;49.868;8.660;2023-06-22T10:24:41;29.60;98.00
4910;DHT22;2470;49.868;8.660;2023-06-22T10:27:10;29.70;97.90
4910;DHT22;2470;49.868;8.660;2023-06-22T10:29:37;29.80;97.50
4910;DHT22;2470;49.868;8.660;2023-06-22T10:32:02;29.90;97.00
4910;DHT22;2470;49.868;8.660;2023-06-22T10:34:28;30.00;97.10
4910;DHT22;2470;49.868;8.660;2023-06-22T10:36:54;30.00;96.70
4910;DHT22;2470;49.868;8.660;2023-06-22T10:39:19;30.00;96.40
4910;DHT22;2470;49.868;8.660;2023-06-22T10:41:44;30.00;96.40
4910;DHT22;2470;49.868;8.660;2023-06-22T10:44:10;29.90;96.20
4910;DHT22;2470;49.868;8.660;2023-06-22T10:46:36;29.90;96.30
4910;DHT22;2470;49.868;8.660;2023-06-22T10:49:01;29.80;96.20
4910;DHT22;2470;49.868;8.660;2023-06-22T10:51:27;29.80;96.20
4910;DHT22;2470;49.868;8.660;2023-06-22T10:53:53;29.80;96.50
4910;DHT22;2470;49.868;8.660;2023-06-22T10:56:19;29.90;96.20
4910;DHT22;2470;49.868;8.660;2023-06-22T10:58:45;30.10;96.30
4910;DHT22;2470;49.868;8.660;2023-06-22T11:01:11;30.30;95.80
4910;DHT22;2470;49.868;8.660;2023-06-22T11:03:36;30.40;95.90
4910;DHT22;2470;49.868;8.660;2023-06-22T11:06:02;30.40;95.70
4910;DHT22;2470;49.868;8.660;2023-06-22T11:08:27;30.50;95.40
4910;DHT22;2470;49.868;8.660;2023-06-22T11:10:53;30.60;95.40
4910;DHT22;2470;49.868;8.660;2023-06-22T11:13:18;30.80;95.30
4910;DHT22;2470;49.868;8.660;2023-06-22T11:15:44;30.90;95.10
4910;DHT22;2470;49.868;8.660;2023-06-22T11:18:09;30.90;94.50
4910;DHT22;2470;49.868;8.660;2023-06-22T11:20:35;31.00;94.70
4910;DHT22;2470;49.868;8.660;2023-06-22T11:23:05;31.10;94.40
4910;DHT22;2470;49.868;8.660;2023-06-22T11:25:32;31.20;94.40
4910;DHT22;2470;49.868;8.660;2023-06-22T11:27:57;31.20;94.20
4910;DHT22;2470;49.868;8.660;2023-06-22T11:30:23;31.30;93.80
4910;DHT22;2470;49.868;8.660;2023-06-22T11:32:48;31.50;93.90
4910;DHT22;2470;49.868;8.660;2023-06-22T11:35:14;31.70;93.80
4910;DHT22;2470;49.868;8.660;2023-06-22T11:37:39;31.80;93.20
4910;DHT22;2470;49.868;8.660;2023-06-22T11:40:05;31.80;92.80
4910;DHT22;2470;49.868;8.660;2023-06-22T11:42:34;31.90;92.80
4910;DHT22;2470;49.868;8.660;2023-06-22T11:44:59;32.00;92.50
4910;DHT22;2470;49.868;8.660;2023-06-22T11:47:25;32.10;92.20
4910;DHT22;2470;49.868;8.660;2023-06-22T11:49:51;32.20;91.00
4910;DHT22;2470;49.868;8.660;2023-06-22T11:52:16;32.20;91.00
4910;DHT22;2470;49.868;8.660;2023-06-22T11:54:43;32.20;90.80
4910;DHT22;2470;49.868;8.660;2023-06-22T11:57:08;32.30;90.50
4910;DHT22;2470;49.868;8.660;2023-06-22T11:59:34;32.40;90.00
4910;DHT22;2470;49.868;8.660;2023-06-22T12:01:59;32.40;89.00
4910;DHT22;2470;49.868;8.660;2023-06-22T12:04:25;32.50;89.40
4910;DHT22;2470;49.868;8.660;2023-06-22T12:06:50;32.50;89.40
4910;DHT22;2470;49.868;8.660;2023-06-22T12:09:16;32.60;89.30
4910;DHT22;2470;49.868;8.660;2023-06-22T12:11:41;32.70;88.40
4910;DHT22;2470;49.868;8.660;2023-06-22T12:14:07;32.80;87.00
4910;DHT22;2470;49.868;8.660;2023-06-22T12:16:32;32.90;86.90
4910;DHT22;2470;49.868;8.660;2023-06-22T12:18:58;33.00;85.60
4910;DHT22;2470;49.868;8.660;2023-06-22T12:21:23;33.10;85.00
4910;DHT22;2470;49.868;8.660;2023-06-22T12:23:49;33.30;84.90
4910;DHT22;2470;49.868;8.660;2023-06-22T12:26:15;33.40;83.70
4910;DHT22;2470;49.868;8.660;2023-06-22T12:28:40;33.50;83.50
4910;DHT22;2470;49.868;8.660;2023-06-22T12:31:05;33.60;83.90
4910;DHT22;2470;49.868;8.660;2023-06-22T12:33:31;33.60;83.50
4910;DHT22;2470;49.868;8.660;2023-06-22T12:35:57;33.60;83.10
4910;DHT22;2470;49.868;8.660;2023-06-22T12:38:22;33.60;82.60
4910;DHT22;2470;49.868;8.660;2023-06-22T12:40:50;33.80;82.60
4910;DHT22;2470;49.868;8.660;2023-06-22T12:43:15;34.00;82.00
4910;DHT22;2470;49.868;8.660;2023-06-22T12:45:41;34.10;80.60
4910;DHT22;2470;49.868;8.660;2023-06-22T12:48:06;34.30;80.80
4910;DHT22;2470;49.868;8.660;2023-06-22T12:50:32;34.60;79.70
4910;DHT22;2470;49.868;8.660;2023-06-22T12:52:57;34.80;78.30
4910;DHT22;2470;49.868;8.660;2023-06-22T12:55:23;34.60;77.30
4910;DHT22;2470;49.868;8.660;2023-06-22T12:57:48;34.50;77.40
4910;DHT22;2470;49.868;8.660;2023-06-22T13:00:14;34.50;77.10
4910;DHT22;2470;49.868;8.660;2023-06-22T13:02:40;34.80;77.40
4910;DHT22;2470;49.868;8.660;2023-06-22T13:05:06;35.40;76.00
4910;DHT22;2470;49.868;8.660;2023-06-22T13:07:31;36.70;74.00
4910;DHT22;2470;49.868;8.660;2023-06-22T13:09:57;38.10;70.40
4910;DHT22;2470;49.868;8.660;2023-06-22T13:12:22;39.80;67.70
4910;DHT22;2470;49.868;8.660;2023-06-22T13:14:48;41.50;60.30
4910;DHT22;2470;49.868;8.660;2023-06-22T13:17:14;42.70;56.40
4910;DHT22;2470;49.868;8.660;2023-06-22T13:19:40;43.50;54.10
4910;DHT22;2470;49.868;8.660;2023-06-22T13:22:32;43.90;52.10
4910;DHT22;2470;49.868;8.660;2023-06-22T13:24:58;44.30;49.30
4910;DHT22;2470;49.868;8.660;2023-06-22T13:27:24;44.70;46.90
4910;DHT22;2470;49.868;8.660;2023-06-22T13:29:50;44.90;45.50
4910;DHT22;2470;49.868;8.660;2023-06-22T13:32:16;45.20;44.30
4910;DHT22;2470;49.868;8.660;2023-06-22T13:34:42;45.20;43.70
4910;DHT22;2470;49.868;8.660;2023-06-22T13:37:07;45.40;42.30
4910;DHT22;2470;49.868;8.660;2023-06-22T13:39:33;45.60;41.70
4910;DHT22;2470;49.868;8.660;2023-06-22T13:41:59;45.40;41.00
4910;DHT22;2470;49.868;8.660;2023-06-22T13:44:24;43.70;41.90
4910;DHT22;2470;49.868;8.660;2023-06-22T13:46:54;42.70;43.20
4910;DHT22;2470;49.868;8.660;2023-06-22T13:49:20;43.10;43.20
4910;DHT22;2470;49.868;8.660;2023-06-22T13:51:45;44.10;42.20
4910;DHT22;2470;49.868;8.660;2023-06-22T13:54:13;45.40;40.70
4910;DHT22;2470;49.868;8.660;2023-06-22T13:56:39;46.60;39.70
4910;DHT22;2470;49.868;8.660;2023-06-22T13:59:04;47.40;38.80
4910;DHT22;2470;49.868;8.660;2023-06-22T14:01:30;47.30;37.50
4910;DHT22;2470;49.868;8.660;2023-06-22T14:03:55;47.30;37.70
4910;DHT22;2470;49.868;8.660;2023-06-22T14:06:21;47.90;36.60
4910;DHT22;2470;49.868;8.660;2023-06-22T14:08:46;48.00;35.40
4910;DHT22;2470;49.868;8.660;2023-06-22T14:11:12;48.10;35.60
4910;DHT22;2470;49.868;8.660;2023-06-22T14:13:37;48.50;34.90
4910;DHT22;2470;49.868;8.660;2023-06-22T14:16:03;48.70;34.40
4910;DHT22;2470;49.868;8.660;2023-06-22T14:18:29;48.80;34.10
4910;DHT22;2470;49.868;8.660;2023-06-22T14:20:55;48.40;34.20
4910;DHT22;2470;49.868;8.660;2023-06-22T14:23:21;48.30;34.50
4910;DHT22;2470;49.868;8.660;2023-06-22T14:25:46;48.90;34.20
4910;DHT22;2470;49.868;8.660;2023-06-22T14:28:12;49.40;33.80
4910;DHT22;2470;49.868;8.660;2023-06-22T14:30:37;49.50;32.80
4910;DHT22;2470;49.868;8.660;2023-06-22T14:33:03;49.50;32.80
4910;DHT22;2470;49.868;8.660;2023-06-22T14:35:28;49.50;32.30
4910;DHT22;2470;49.868;8.660;2023-06-22T14:37:54;49.50;32.90
4910;DHT22;2470;49.868;8.660;2023-06-22T14:40:19;49.90;31.80
4910;DHT22;2470;49.868;8.660;2023-06-22T14:42:45;49.40;31.90
4910;DHT22;2470;49.868;8.660;2023-06-22T14:45:10;49.30;32.10
4910;DHT22;2470;49.868;8.660;2023-06-22T14:47:36;49.20;31.60
4910;DHT22;2470;49.868;8.660;2023-06-22T14:50:01;48.50;31.70
4910;DHT22;2470;49.868;8.660;2023-06-22T14:52:27;46.50;33.00
4910;DHT22;2470;49.868;8.660;2023-06-22T14:54:53;44.80;34.80
4910;DHT22;2470;49.868;8.660;2023-06-22T14:57:18;44.40;36.20
4910;DHT22;2470;49.868;8.660;2023-06-22T14:59:46;44.30;36.50
4910;DHT22;2470;49.868;8.660;2023-06-22T15:02:12;43.70;37.40
4910;DHT22;2470;49.868;8.660;2023-06-22T15:04:38;43.50;38.10
4910;DHT22;2470;49.868;8.660;2023-06-22T15:07:04;44.00;38.00
4910;DHT22;2470;49.868;8.660;2023-06-22T15:09:29;44.40;37.90
4910;DHT22;2470;49.868;8.660;2023-06-22T15:11:55;44.30;37.70
4910;DHT22;2470;49.868;8.660;2023-06-22T15:14:20;43.90;38.40
4910;DHT22;2470;49.868;8.660;2023-06-22T15:16:46;43.60;38.40
4910;DHT22;2470;49.868;8.660;2023-06-22T15:19:11;43.30;39.20
4910;DHT22;2470;49.868;8.660;2023-06-22T15:21:38;43.30;39.10
4910;DHT22;2470;49.868;8.660;2023-06-22T15:24:04;43.40;38.70
4910;DHT22;2470;49.868;8.660;2023-06-22T15:26:29;43.90;38.50
4910;DHT22;2470;49.868;8.660;2023-06-22T15:28:55;44.10;37.90
4910;DHT22;2470;49.868;8.660;2023-06-22T15:31:21;43.70;37.80
4910;DHT22;2470;49.868;8.660;2023-06-22T15:33:46;43.20;38.20
4910;DHT22;2470;49.868;8.660;2023-06-22T15:36:12;42.80;38.70
4910;DHT22;2470;49.868;8.660;2023-06-22T15:38:37;42.50;39.20
4910;DHT22;2470;49.868;8.660;2023-06-22T15:41:03;42.10;39.70
4910;DHT22;2470;49.868;8.660;2023-06-22T15:43:29;40.80;41.00
4910;DHT22;2470;49.868;8.660;2023-06-22T15:45:54;40.00;42.00
4910;DHT22;2470;49.868;8.660;2023-06-22T15:48:21;39.10;43.20
4910;DHT22;2470;49.868;8.660;2023-06-22T15:50:46;38.10;44.80
4910;DHT22;2470;49.868;8.660;2023-06-22T15:53:12;37.30;46.10
4910;DHT22;2470;49.868;8.660;2023-06-22T15:55:38;36.90;47.00
4910;DHT22;2470;49.868;8.660;2023-06-22T15:58:03;36.50;47.60
4910;DHT22;2470;49.868;8.660;2023-06-22T16:00:29;36.00;47.70
4910;DHT22;2470;49.868;8.660;2023-06-22T16:02:54;35.50;48.60